Terminal Aerodrome Forecast
Issued by NWS Shreveport, LA

Home | Current Version | Previous Version | Text Only | Print | Product List | Glossary On
Versions: 1 2 3 4 5 6 7 8 9 10 11 12 13 14 15 16 17 18
000
FTUS44 KSHV 051148
TAFTXK
TAF
KTXK 051148Z 0512/0612 05006KT 6SM BR SCT015 OVC100
      TEMPO 0512/0515 6SM BR BKN015
     FM051500 08007KT 4SM -RA BR OVC008
     FM051800 07006KT 5SM RA BR OVC007
     FM060000 06004KT 5SM -RA BR OVC005
     FM060900 29006KT 4SM -DZ BR OVC003=

USA.gov is the U.S. government's official web portal to all federal, state and local government web resources and services.